createdAt,value
2022-12-03T00:03:03.245Z,35.70
2022-12-03T00:08:06.574Z,35.80
2022-12-03T00:13:09.433Z,35.80
2022-12-03T00:18:13.684Z,35.90
2022-12-03T00:23:16.505Z,35.90
2022-12-03T00:28:19.314Z,35.90
2022-12-03T00:33:23.732Z,36.00
2022-12-03T00:38:26.595Z,36.00
2022-12-03T00:43:29.450Z,36.00
2022-12-03T00:48:33.618Z,36.20
2022-12-03T00:53:36.630Z,36.20
2022-12-03T00:58:39.487Z,36.20
2022-12-03T01:03:43.683Z,36.20
2022-12-03T01:08:46.536Z,36.30
2022-12-03T01:13:49.421Z,36.30
2022-12-03T01:18:53.651Z,36.30
2022-12-03T01:23:56.464Z,36.30
2022-12-03T01:28:59.319Z,36.40
2022-12-03T01:34:03.541Z,36.40
2022-12-03T01:39:06.423Z,36.50
2022-12-03T01:44:18.110Z,36.50
2022-12-03T01:49:24.818Z,36.40
2022-12-03T01:54:30.797Z,36.50
2022-12-03T01:59:37.247Z,36.50
2022-12-03T02:04:41.748Z,36.50
2022-12-03T02:09:44.651Z,36.40
2022-12-03T02:14:48.160Z,36.30
2022-12-03T02:19:53.217Z,36.40
2022-12-03T02:25:07.421Z,36.30
2022-12-03T02:30:13.019Z,36.40
2022-12-03T02:35:17.683Z,36.40
2022-12-03T02:40:23.660Z,36.30
2022-12-03T02:45:29.342Z,36.30
2022-12-03T02:50:36.855Z,36.40
2022-12-03T02:55:41.899Z,36.40
2022-12-03T03:00:46.009Z,36.50
2022-12-03T03:05:50.176Z,36.40
2022-12-03T03:10:54.929Z,36.30
2022-12-03T03:15:58.273Z,36.40
2022-12-03T03:21:01.416Z,36.50
2022-12-03T03:26:07.740Z,36.40
2022-12-03T03:31:13.588Z,36.40
2022-12-03T03:36:17.037Z,36.40
2022-12-03T03:41:22.556Z,36.40
2022-12-03T03:46:25.608Z,36.40
2022-12-03T03:51:28.626Z,36.40
2022-12-03T03:56:34.525Z,36.40
2022-12-03T04:01:37.885Z,36.40
2022-12-03T04:06:40.780Z,36.30
2022-12-03T04:12:02.705Z,36.50
2022-12-03T04:17:05.568Z,37.20
2022-12-03T04:22:25.942Z,36.40
2022-12-03T04:27:47.469Z,36.50
2022-12-03T04:33:07.716Z,36.50
2022-12-03T04:38:10.745Z,36.40
2022-12-03T04:43:14.960Z,36.40
2022-12-03T04:48:18.163Z,36.50
2022-12-03T04:53:21.074Z,36.40
2022-12-03T04:58:25.304Z,36.40
2022-12-03T05:03:28.259Z,36.30
2022-12-03T05:08:31.128Z,36.50
2022-12-03T05:13:35.382Z,36.40
2022-12-03T05:18:38.570Z,36.40
2022-12-03T05:23:41.497Z,36.60
2022-12-03T05:28:45.637Z,36.80
2022-12-03T05:33:48.491Z,36.90
2022-12-03T05:38:51.300Z,36.90
2022-12-03T05:43:55.846Z,36.90
2022-12-03T05:48:58.664Z,36.80
2022-12-03T05:54:01.475Z,36.80
2022-12-03T05:59:05.646Z,36.80
2022-12-03T06:04:08.560Z,36.80
2022-12-03T06:09:11.468Z,36.90
2022-12-03T06:14:15.743Z,36.80
2022-12-03T06:19:18.942Z,36.80
2022-12-03T06:24:21.885Z,36.90
2022-12-03T06:29:26.048Z,36.90
2022-12-03T06:34:28.878Z,37.10
2022-12-03T06:39:31.693Z,37.10
2022-12-03T06:44:35.963Z,37.10
2022-12-03T06:49:38.826Z,37.00
2022-12-03T06:54:41.654Z,37.00
2022-12-03T06:59:45.902Z,36.90
2022-12-03T07:04:48.846Z,36.60
2022-12-03T07:09:52.030Z,36.80
2022-12-03T07:14:56.571Z,36.80
2022-12-03T07:19:59.623Z,36.80
2022-12-03T07:25:02.445Z,36.90
2022-12-03T07:30:08.410Z,37.00
2022-12-03T07:35:11.307Z,37.10
2022-12-03T07:40:14.720Z,37.00
2022-12-03T07:45:19.068Z,37.10
2022-12-03T07:50:21.910Z,37.10
2022-12-03T07:55:25.258Z,37.10
2022-12-03T08:00:29.521Z,37.00
2022-12-03T08:05:32.348Z,37.00
2022-12-03T08:10:35.197Z,37.00
2022-12-03T08:15:39.823Z,37.00
2022-12-03T08:20:45.287Z,37.10
2022-12-03T08:25:48.767Z,37.20
2022-12-03T08:31:01.130Z,37.20
2022-12-03T08:36:13.454Z,37.20
2022-12-03T08:41:37.251Z,37.50
2022-12-03T08:46:41.448Z,37.70
2022-12-03T08:51:44.350Z,37.70
2022-12-03T08:56:47.342Z,37.70
2022-12-03T09:01:53.353Z,38.00
2022-12-03T09:06:57.018Z,38.00
2022-12-03T09:12:02.046Z,37.90
2022-12-03T09:17:06.747Z,37.60
2022-12-03T09:22:09.689Z,37.10
2022-12-03T09:27:12.536Z,36.70
2022-12-03T09:32:18.487Z,36.10
2022-12-03T09:37:22.303Z,35.60
2022-12-03T09:42:26.208Z,35.20
2022-12-03T09:47:31.823Z,34.90
2022-12-03T09:52:35.852Z,34.50
2022-12-03T09:57:38.896Z,34.30
2022-12-03T10:02:43.462Z,34.20
2022-12-03T10:07:46.521Z,33.60
2022-12-03T10:12:50.183Z,33.90
2022-12-03T10:17:56.114Z,34.70
2022-12-03T10:22:59.223Z,34.10
2022-12-03T10:28:03.826Z,33.90
2022-12-03T10:33:18.799Z,34.20
2022-12-03T10:38:23.225Z,34.50
2022-12-03T10:43:26.880Z,34.60
2022-12-03T10:48:31.272Z,34.70
2022-12-03T10:53:35.786Z,35.30
2022-12-03T10:58:40.567Z,35.60
2022-12-03T11:03:45.790Z,35.70
2022-12-03T11:08:56.563Z,35.60
2022-12-03T11:14:02.512Z,35.40
2022-12-03T11:19:16.085Z,35.40
2022-12-03T11:24:21.762Z,35.40
2022-12-03T11:29:50.620Z,35.20
2022-12-03T11:34:54.960Z,35.20
2022-12-03T11:40:39.395Z,35.20
2022-12-03T11:45:42.756Z,35.40
2022-12-03T11:50:52.513Z,35.50
2022-12-03T11:56:08.255Z,35.50
2022-12-03T12:01:11.252Z,35.60
2022-12-03T12:06:17.417Z,35.70
2022-12-03T12:11:22.230Z,35.70
2022-12-03T12:16:51.191Z,35.60
2022-12-03T12:21:56.000Z,35.70
2022-12-03T12:26:59.927Z,35.80
2022-12-03T12:32:13.061Z,35.90
2022-12-03T12:37:21.453Z,36.10
2022-12-03T12:42:35.560Z,36.10
2022-12-03T12:47:38.622Z,36.10
2022-12-03T12:52:50.952Z,36.00
2022-12-03T12:57:54.027Z,36.10
2022-12-03T13:03:00.707Z,36.20
2022-12-03T13:08:15.134Z,36.40
2022-12-03T13:13:23.723Z,36.40
2022-12-03T13:18:34.527Z,36.50
2022-12-03T13:23:38.847Z,36.60
2022-12-03T13:28:42.775Z,36.70
2022-12-03T13:33:45.624Z,36.80
2022-12-03T13:38:50.390Z,36.80
2022-12-03T13:43:54.078Z,36.80
2022-12-03T13:49:00.407Z,36.80
2022-12-03T13:54:14.536Z,37.00
2022-12-03T13:59:24.491Z,37.30
2022-12-03T14:04:29.006Z,37.20
2022-12-03T14:09:33.288Z,37.30
2022-12-03T14:14:36.125Z,37.50
2022-12-03T14:19:38.973Z,37.60
2022-12-03T14:24:43.129Z,37.60
2022-12-03T14:29:46.072Z,37.10
2022-12-03T14:34:48.923Z,37.10
2022-12-03T14:39:53.496Z,37.20
2022-12-03T14:44:56.794Z,37.20
2022-12-03T14:49:59.697Z,37.20
2022-12-03T14:55:03.946Z,37.40
2022-12-03T15:00:08.000Z,37.50
2022-12-03T15:05:11.002Z,37.50
2022-12-03T15:10:16.251Z,37.60
2022-12-03T15:15:19.062Z,37.60
2022-12-03T15:20:21.917Z,37.60
2022-12-03T15:25:26.084Z,37.50
2022-12-03T15:30:28.928Z,37.00
2022-12-03T15:35:31.945Z,37.10
2022-12-03T15:40:38.032Z,37.20
2022-12-03T15:45:41.392Z,37.00
2022-12-03T15:50:44.307Z,37.00
2022-12-03T15:55:48.506Z,37.10
2022-12-03T16:00:51.363Z,37.10
2022-12-03T16:05:54.267Z,37.00
2022-12-03T16:10:58.586Z,36.60
2022-12-03T16:16:01.494Z,36.30
2022-12-03T16:21:04.456Z,35.80
2022-12-03T16:26:08.955Z,35.60
2022-12-03T16:31:11.863Z,35.60
2022-12-03T16:36:14.835Z,35.30
2022-12-03T16:41:19.699Z,35.30
2022-12-03T16:46:26.109Z,35.30
2022-12-03T16:51:30.171Z,35.10
2022-12-03T16:56:34.353Z,35.20
2022-12-03T17:01:37.328Z,35.40
2022-12-03T17:06:40.248Z,35.20
2022-12-03T17:11:44.383Z,34.70
2022-12-03T17:16:47.399Z,34.40
2022-12-03T17:21:50.268Z,34.00
2022-12-03T17:26:54.491Z,34.00
2022-12-03T17:31:57.365Z,33.70
2022-12-03T17:37:00.262Z,34.00
2022-12-03T17:42:04.740Z,34.00
2022-12-03T17:47:07.558Z,34.20
2022-12-03T17:52:10.378Z,34.30
2022-12-03T17:57:14.788Z,34.40
2022-12-03T18:02:17.630Z,34.50
2022-12-03T18:07:20.467Z,34.50
2022-12-03T18:12:24.730Z,34.60
2022-12-03T18:17:27.547Z,35.50
2022-12-03T18:22:31.794Z,35.60
2022-12-03T18:27:36.164Z,35.30
2022-12-03T18:32:39.003Z,35.40
2022-12-03T18:37:41.896Z,35.40
2022-12-03T18:42:46.065Z,35.30
2022-12-03T18:47:49.008Z,35.60
2022-12-03T18:52:51.946Z,35.60
2022-12-03T18:57:56.104Z,35.50
2022-12-03T19:03:03.840Z,35.30
2022-12-03T19:08:14.321Z,35.20
2022-12-03T19:13:18.543Z,35.20
2022-12-03T19:18:21.586Z,35.10
2022-12-03T19:23:24.520Z,35.00
2022-12-03T19:28:30.076Z,34.80
2022-12-03T19:33:33.514Z,34.90
2022-12-03T19:38:36.501Z,35.00
2022-12-03T19:43:41.171Z,35.30
2022-12-03T19:48:45.392Z,35.20
2022-12-03T19:53:48.255Z,35.20
2022-12-03T19:58:56.112Z,35.30
2022-12-03T20:04:01.578Z,35.30
2022-12-03T20:09:06.887Z,35.50
2022-12-03T20:14:14.677Z,35.30
2022-12-03T20:19:18.448Z,35.10
2022-12-03T20:24:21.332Z,35.20
2022-12-03T20:29:25.547Z,35.30
2022-12-03T20:34:28.378Z,35.10
2022-12-03T20:39:31.271Z,35.10
2022-12-03T20:44:35.464Z,35.30
2022-12-03T20:49:40.152Z,35.30
2022-12-03T20:54:43.148Z,35.30
2022-12-03T20:59:47.438Z,35.30
2022-12-03T21:04:50.311Z,35.30
2022-12-03T21:09:53.622Z,35.30
2022-12-03T21:14:58.155Z,35.40
2022-12-03T21:20:01.549Z,35.50
2022-12-03T21:25:04.795Z,35.60
2022-12-03T21:30:10.019Z,35.70
2022-12-03T21:35:13.111Z,35.60
2022-12-03T21:40:16.163Z,35.70
2022-12-03T21:45:20.630Z,35.60
2022-12-03T21:50:23.450Z,35.90
2022-12-03T21:55:26.426Z,35.40
2022-12-03T22:00:30.707Z,35.60
2022-12-03T22:05:33.607Z,35.70
2022-12-03T22:10:37.014Z,35.70
2022-12-03T22:15:41.259Z,35.80
2022-12-03T22:20:44.271Z,36.20
2022-12-03T22:25:47.111Z,36.00
2022-12-03T22:30:51.295Z,36.00
2022-12-03T22:35:58.269Z,36.20
2022-12-03T22:41:05.096Z,36.20
2022-12-03T22:46:10.968Z,36.30
2022-12-03T22:51:15.643Z,36.40
2022-12-03T22:56:18.508Z,36.40
2022-12-03T23:01:28.206Z,36.50
2022-12-03T23:06:32.530Z,36.90
2022-12-03T23:11:35.852Z,36.90
2022-12-03T23:16:41.021Z,36.90
2022-12-03T23:21:43.884Z,36.90
2022-12-03T23:26:46.739Z,37.00
2022-12-03T23:31:51.032Z,37.10
2022-12-03T23:36:53.919Z,37.20
2022-12-03T23:41:56.862Z,37.30
2022-12-03T23:47:02.294Z,37.50
2022-12-03T23:52:05.206Z,37.40
2022-12-03T23:57:08.043Z,37.30
